createdAt,value
2022-11-15T00:01:22.372Z,12.42
2022-11-15T00:04:42.682Z,12.36
2022-11-15T00:08:03.607Z,12.47
2022-11-15T00:18:47.798Z,12.80
2022-11-15T00:22:15.847Z,12.74
2022-11-15T00:25:37.347Z,12.88
2022-11-15T00:29:07.893Z,12.82
2022-11-15T00:32:54.764Z,12.68
2022-11-15T00:36:24.684Z,12.80
2022-11-15T00:40:22.764Z,12.69
2022-11-15T00:43:52.167Z,12.56
2022-11-15T00:47:17.893Z,12.79
2022-11-15T00:50:44.454Z,12.74
2022-11-15T00:54:05.074Z,12.62
2022-11-15T00:57:32.385Z,12.62
2022-11-15T01:00:53.649Z,12.75
2022-11-15T01:04:15.032Z,13.17
2022-11-15T01:07:37.808Z,12.67
2022-11-15T01:11:13.871Z,12.62
2022-11-15T01:18:46.848Z,12.74
2022-11-15T01:22:15.530Z,12.64
2022-11-15T01:25:42.534Z,12.66
2022-11-15T01:29:11.047Z,12.69
2022-11-15T01:32:46.368Z,12.35
2022-11-15T01:36:32.898Z,12.42
2022-11-15T01:40:10.853Z,12.40
2022-11-15T01:43:36.254Z,12.50
2022-11-15T01:46:56.839Z,12.60
2022-11-15T01:50:22.876Z,12.64
2022-11-15T01:54:24.262Z,12.59
2022-11-15T01:58:41.361Z,12.18
2022-11-15T02:06:45.180Z,12.24
2022-11-15T02:10:17.902Z,12.44
2022-11-15T02:13:43.198Z,12.50
2022-11-15T02:17:31.817Z,12.59
2022-11-15T02:21:16.518Z,12.66
2022-11-15T02:25:11.852Z,12.56
2022-11-15T02:29:20.330Z,12.51
2022-11-15T02:32:57.470Z,12.61
2022-11-15T02:36:52.598Z,12.37
2022-11-15T02:40:25.605Z,12.32
2022-11-15T02:43:57.508Z,12.62
2022-11-15T02:47:19.132Z,12.84
2022-11-15T02:50:40.192Z,12.97
2022-11-15T02:54:00.501Z,12.83
2022-11-15T02:57:50.502Z,12.94
2022-11-15T03:01:36.479Z,13.02
2022-11-15T03:05:11.983Z,13.07
2022-11-15T03:08:45.004Z,13.15
2022-11-15T03:12:15.881Z,13.05
2022-11-15T03:15:48.645Z,13.10
2022-11-15T03:19:23.299Z,12.93
2022-11-15T03:22:45.793Z,13.13
2022-11-15T03:26:13.311Z,13.01
2022-11-15T03:29:38.966Z,12.90
2022-11-15T03:33:00.996Z,12.82
2022-11-15T03:36:23.907Z,12.91
2022-11-15T03:39:44.797Z,12.80
2022-11-15T03:43:35.152Z,12.85
2022-11-15T03:47:04.832Z,12.95
2022-11-15T03:50:26.025Z,12.85
2022-11-15T03:53:46.994Z,12.84
2022-11-15T03:57:06.966Z,12.84
2022-11-15T04:00:27.845Z,12.78
2022-11-15T04:03:48.360Z,12.64
2022-11-15T04:07:08.967Z,12.56
2022-11-15T04:10:30.119Z,12.50
2022-11-15T04:13:52.148Z,12.38
2022-11-15T04:17:12.817Z,12.33
2022-11-15T04:20:51.666Z,12.35
2022-11-15T04:24:14.699Z,12.32
2022-11-15T04:27:36.177Z,12.37
2022-11-15T04:30:56.492Z,12.33
2022-11-15T04:34:16.806Z,12.35
2022-11-15T04:37:37.368Z,12.35
2022-11-15T04:40:57.686Z,12.45
2022-11-15T04:44:17.899Z,12.52
2022-11-15T04:47:38.209Z,12.53
2022-11-15T04:51:00.598Z,12.48
2022-11-15T04:54:22.945Z,12.46
2022-11-15T04:57:43.886Z,12.51
2022-11-15T05:01:11.901Z,12.44
2022-11-15T05:04:32.654Z,12.39
2022-11-15T05:07:53.369Z,12.34
2022-11-15T05:11:13.604Z,12.52
2022-11-15T05:14:34.305Z,12.39
2022-11-15T05:17:59.976Z,12.53
2022-11-15T05:21:21.172Z,12.46
2022-11-15T05:24:41.371Z,12.15
2022-11-15T05:28:02.068Z,12.04
2022-11-15T05:31:22.758Z,12.00
2022-11-15T05:34:43.245Z,11.95
2022-11-15T05:38:04.002Z,12.07
2022-11-15T05:41:48.099Z,12.09
2022-11-15T05:45:10.424Z,12.06
2022-11-15T05:48:30.909Z,11.99
2022-11-15T05:51:52.740Z,12.13
2022-11-15T05:55:14.016Z,12.28
2022-11-15T05:58:38.052Z,12.39
2022-11-15T06:02:03.101Z,12.29
2022-11-15T06:05:24.101Z,12.30
2022-11-15T06:08:44.422Z,12.28
2022-11-15T06:12:04.954Z,12.28
2022-11-15T06:15:25.313Z,12.15
2022-11-15T06:19:22.312Z,11.86
2022-11-15T06:24:31.477Z,11.86
2022-11-15T06:35:39.061Z,11.75
2022-11-15T06:47:00.568Z,11.64
2022-11-15T06:54:48.979Z,11.76
2022-11-15T06:58:44.536Z,12.04
2022-11-15T07:02:28.851Z,11.80
2022-11-15T07:10:00.986Z,11.73
2022-11-15T07:13:25.885Z,11.86
2022-11-15T07:17:13.200Z,11.67
2022-11-15T07:20:33.677Z,11.93
2022-11-15T07:23:53.998Z,11.83
2022-11-15T07:27:20.263Z,11.87
2022-11-15T07:30:45.332Z,11.73
2022-11-15T07:34:09.178Z,11.83
2022-11-15T07:37:29.507Z,11.81
2022-11-15T07:41:00.616Z,11.94
2022-11-15T07:44:20.987Z,11.93
2022-11-15T07:47:41.399Z,11.94
2022-11-15T07:51:03.310Z,11.98
2022-11-15T07:54:24.120Z,11.96
2022-11-15T07:57:48.753Z,11.93
2022-11-15T08:01:11.374Z,11.86
2022-11-15T08:04:31.689Z,11.82
2022-11-15T08:07:52.826Z,11.78
2022-11-15T08:11:13.060Z,11.70
2022-11-15T08:14:33.258Z,11.66
2022-11-15T08:18:01.781Z,11.65
2022-11-15T08:21:22.989Z,11.53
2022-11-15T08:24:43.277Z,11.49
2022-11-15T08:28:08.854Z,11.48
2022-11-15T08:31:29.459Z,11.49
2022-11-15T08:34:49.763Z,11.57
2022-11-15T08:38:10.806Z,11.52
2022-11-15T08:41:34.725Z,11.48
2022-11-15T08:44:54.700Z,11.47
2022-11-15T08:48:15.036Z,11.63
2022-11-15T08:51:35.193Z,11.73
2022-11-15T08:54:55.553Z,11.89
2022-11-15T08:58:16.045Z,12.00
2022-11-15T09:01:36.546Z,11.98
2022-11-15T09:04:56.969Z,12.05
2022-11-15T09:08:46.114Z,11.97
2022-11-15T09:12:01.391Z,12.07
2022-11-15T09:15:22.900Z,12.09
2022-11-15T09:18:43.183Z,12.10
2022-11-15T09:22:06.885Z,12.09
2022-11-15T09:25:29.444Z,12.07
2022-11-15T09:28:49.665Z,12.16
2022-11-15T09:32:13.909Z,12.20
2022-11-15T09:35:34.422Z,12.31
2022-11-15T09:38:54.938Z,12.36
2022-11-15T09:42:28.719Z,12.35
2022-11-15T09:46:13.257Z,12.31
2022-11-15T09:49:33.670Z,12.24
2022-11-15T09:52:49.868Z,12.15
2022-11-15T09:56:04.731Z,11.93
2022-11-15T09:59:35.664Z,11.93
2022-11-15T10:02:47.774Z,11.95
2022-11-15T10:05:51.735Z,11.96
2022-11-15T10:09:15.105Z,12.01
2022-11-15T10:12:17.762Z,12.03
2022-11-15T10:15:25.047Z,12.06
2022-11-15T10:18:42.749Z,12.06
2022-11-15T10:21:47.424Z,12.19
2022-11-15T10:24:49.555Z,12.19
2022-11-15T10:28:10.641Z,12.14
2022-11-15T10:31:27.288Z,12.22
2022-11-15T10:34:29.093Z,12.26
2022-11-15T10:37:32.816Z,12.22
2022-11-15T10:40:36.451Z,12.25
2022-11-15T10:43:38.266Z,12.32
2022-11-15T10:46:47.396Z,12.33
2022-11-15T10:49:57.341Z,12.40
2022-11-15T10:53:02.527Z,12.48
2022-11-15T10:56:09.890Z,12.47
2022-11-15T10:59:21.623Z,12.65
2022-11-15T11:02:42.997Z,12.66
2022-11-15T11:05:46.462Z,12.79
2022-11-15T11:09:00.785Z,12.79
2022-11-15T11:12:10.659Z,12.83
2022-11-15T11:15:16.407Z,12.88
2022-11-15T11:18:32.187Z,13.03
2022-11-15T11:21:58.452Z,13.12
2022-11-15T11:25:24.351Z,13.20
2022-11-15T11:28:35.752Z,13.27
2022-11-15T11:32:05.601Z,13.36
2022-11-15T11:35:10.240Z,13.37
2022-11-15T11:38:23.901Z,13.46
2022-11-15T11:42:03.937Z,13.51
2022-11-15T11:45:22.739Z,13.61
2022-11-15T11:48:56.647Z,13.75
2022-11-15T11:52:17.171Z,13.70
2022-11-15T11:55:27.110Z,13.64
2022-11-15T11:58:49.010Z,13.62
2022-11-15T12:01:50.973Z,13.60
2022-11-15T12:04:58.096Z,13.50
2022-11-15T12:08:14.669Z,13.56
2022-11-15T12:11:27.352Z,13.53
2022-11-15T12:14:34.881Z,13.37
2022-11-15T12:17:38.146Z,13.52
2022-11-15T12:20:48.576Z,13.61
2022-11-15T12:23:55.861Z,13.71
2022-11-15T12:27:36.010Z,13.93
2022-11-15T12:30:52.981Z,14.03
2022-11-15T12:34:04.301Z,13.99
2022-11-15T12:37:34.794Z,14.08
2022-11-15T12:40:39.078Z,14.12
2022-11-15T12:43:43.358Z,14.14
2022-11-15T12:46:44.989Z,14.19
2022-11-15T12:49:47.739Z,14.31
2022-11-15T12:53:24.117Z,14.38
2022-11-15T12:56:25.907Z,14.39
2022-11-15T13:00:02.754Z,14.46
2022-11-15T13:03:24.172Z,14.44
2022-11-15T13:06:45.823Z,14.49
2022-11-15T13:09:47.495Z,14.51
2022-11-15T13:12:51.616Z,14.55
2022-11-15T13:15:57.449Z,14.58
2022-11-15T13:19:00.381Z,14.62
2022-11-15T13:22:28.395Z,14.62
2022-11-15T13:25:48.958Z,14.63
2022-11-15T13:28:53.240Z,14.61
2022-11-15T13:31:56.629Z,14.54
2022-11-15T13:35:01.390Z,14.46
2022-11-15T13:38:05.736Z,14.46
2022-11-15T13:41:26.250Z,14.43
2022-11-15T13:44:30.912Z,14.34
2022-11-15T13:47:32.723Z,14.35
2022-11-15T13:50:38.397Z,14.39
2022-11-15T13:53:44.192Z,14.38
2022-11-15T13:56:51.047Z,14.28
2022-11-15T14:00:04.247Z,14.13
2022-11-15T14:03:28.929Z,14.01
2022-11-15T14:06:31.707Z,13.95
2022-11-15T14:09:46.265Z,13.93
2022-11-15T14:12:52.148Z,13.93
2022-11-15T14:15:53.815Z,13.93
2022-11-15T14:18:55.452Z,14.09
2022-11-15T14:22:14.430Z,14.14
2022-11-15T14:25:23.406Z,14.05
2022-11-15T14:28:24.977Z,14.25
2022-11-15T14:31:26.733Z,14.19
2022-11-15T14:34:28.485Z,14.20
2022-11-15T14:37:36.515Z,14.17
2022-11-15T14:40:38.489Z,14.29
2022-11-15T14:43:40.138Z,14.16
2022-11-15T14:46:41.789Z,14.12
2022-11-15T14:49:43.642Z,14.09
2022-11-15T14:52:45.548Z,14.20
2022-11-15T14:55:47.357Z,13.80
2022-11-15T14:58:59.102Z,14.05
2022-11-15T15:02:00.791Z,14.04
2022-11-15T15:05:04.148Z,14.02
2022-11-15T15:08:06.815Z,14.20
2022-11-15T15:11:17.990Z,14.16
2022-11-15T15:14:19.754Z,14.08
2022-11-15T15:17:22.310Z,14.15
2022-11-15T15:20:24.377Z,14.07
2022-11-15T15:23:30.316Z,13.87
2022-11-15T15:26:36.042Z,13.72
2022-11-15T15:29:38.191Z,13.48
2022-11-15T15:32:39.831Z,13.57
2022-11-15T15:35:41.483Z,13.51
2022-11-15T15:38:43.540Z,13.56
2022-11-15T15:41:46.728Z,13.49
2022-11-15T15:44:49.824Z,13.53
2022-11-15T15:47:52.978Z,13.43
2022-11-15T15:50:54.656Z,13.36
2022-11-15T15:53:58.151Z,13.21
2022-11-15T15:56:59.825Z,13.37
2022-11-15T16:00:01.605Z,13.01
2022-11-15T16:03:13.720Z,12.79
2022-11-15T16:06:48.111Z,12.68
2022-11-15T16:10:03.455Z,12.63
2022-11-15T16:13:05.514Z,12.53
2022-11-15T16:16:14.472Z,12.56
2022-11-15T16:19:16.846Z,12.53
2022-11-15T16:22:20.133Z,12.47
2022-11-15T16:25:23.594Z,12.43
2022-11-15T16:28:37.311Z,12.39
2022-11-15T16:31:43.590Z,12.34
2022-11-15T16:34:48.974Z,12.23
2022-11-15T16:37:51.328Z,12.10
2022-11-15T16:40:53.044Z,12.08
2022-11-15T16:43:54.751Z,11.73
2022-11-15T16:46:56.496Z,11.81
2022-11-15T16:49:58.173Z,11.76
2022-11-15T16:53:00.122Z,11.75
2022-11-15T17:05:14.751Z,11.54
2022-11-15T17:08:22.048Z,11.58
2022-11-15T17:11:24.028Z,11.62
2022-11-15T17:14:34.005Z,11.74
2022-11-15T17:22:51.219Z,11.45
2022-11-15T17:25:31.920Z,11.56
2022-11-15T17:28:41.924Z,11.55
2022-11-15T17:31:47.066Z,11.49
2022-11-15T17:34:56.406Z,11.37
2022-11-15T17:37:58.142Z,11.52
2022-11-15T17:41:53.160Z,11.23
2022-11-15T17:45:33.995Z,11.43
2022-11-15T17:48:48.370Z,11.07
2022-11-15T17:51:50.421Z,11.13
2022-11-15T17:54:56.331Z,11.17
2022-11-15T17:58:16.865Z,11.30
2022-11-15T18:06:20.066Z,10.80
2022-11-15T18:13:10.416Z,10.91
2022-11-15T18:19:46.262Z,10.83
2022-11-15T18:26:56.056Z,11.06
2022-11-15T18:30:44.543Z,11.05
2022-11-15T18:37:37.360Z,10.87
2022-11-15T18:44:57.118Z,11.08
2022-11-15T18:48:38.705Z,10.95
2022-11-15T18:51:55.543Z,11.17
2022-11-15T18:55:04.783Z,10.97
2022-11-15T18:58:21.520Z,10.87
2022-11-15T19:02:29.846Z,10.91
2022-11-15T19:05:34.408Z,10.97
2022-11-15T19:09:02.794Z,11.01
2022-11-15T19:12:53.496Z,11.18
2022-11-15T19:17:06.336Z,11.12
2022-11-15T19:34:55.805Z,10.96
2022-11-15T20:38:47.143Z,10.37
2022-11-15T20:46:51.529Z,10.27
2022-11-15T20:53:31.462Z,10.47
2022-11-15T20:56:34.871Z,10.72
2022-11-15T20:59:51.630Z,10.28
2022-11-15T21:02:55.745Z,10.35
2022-11-15T21:06:48.777Z,10.39
2022-11-15T21:10:32.644Z,10.52
2022-11-15T21:13:37.218Z,10.52
2022-11-15T21:17:03.759Z,10.51
2022-11-15T21:20:34.830Z,10.60
2022-11-15T21:23:39.621Z,10.61
2022-11-15T21:27:19.291Z,10.83
2022-11-15T21:30:40.149Z,10.44
2022-11-15T21:34:01.771Z,10.59
2022-11-15T21:37:32.504Z,10.52
2022-11-15T21:40:52.237Z,10.60
2022-11-15T21:54:22.762Z,10.18
2022-11-15T21:57:43.690Z,10.34
2022-11-15T22:01:17.837Z,10.29
2022-11-15T22:04:21.563Z,10.05
2022-11-15T22:07:43.452Z,10.03
2022-11-15T22:11:02.288Z,10.06
2022-11-15T22:18:28.919Z,10.21
2022-11-15T22:22:41.780Z,10.64
2022-11-15T22:30:15.954Z,10.07
2022-11-15T22:34:15.784Z,10.44
2022-11-15T22:42:27.097Z,10.23
2022-11-15T22:46:20.411Z,10.32
